createdAt,value
2019-01-27T00:01:32.181Z,254.17
2019-01-27T00:04:03.435Z,249.40
2019-01-27T00:06:33.481Z,236.30
2019-01-27T00:09:06.180Z,254.83
2019-01-27T00:11:35.658Z,256.47
2019-01-27T00:14:08.324Z,247.43
2019-01-27T00:16:37.861Z,253.70
2019-01-27T00:19:09.261Z,252.00
2019-01-27T00:21:39.115Z,244.90
2019-01-27T00:24:08.726Z,246.10
2019-01-27T00:26:38.166Z,245.17
2019-01-27T00:29:07.990Z,246.43
2019-01-27T00:31:37.616Z,242.70
2019-01-27T00:34:07.107Z,231.73
2019-01-27T00:36:36.835Z,245.43
2019-01-27T00:39:09.710Z,235.47
2019-01-27T00:41:39.019Z,234.13
2019-01-27T00:44:08.394Z,237.97
2019-01-27T00:46:37.855Z,244.53
2019-01-27T00:49:07.342Z,253.73
2019-01-27T00:51:37.328Z,256.07
2019-01-27T00:54:09.724Z,244.63
2019-01-27T00:56:39.138Z,247.63
2019-01-27T00:59:10.411Z,250.73
2019-01-27T01:01:44.051Z,254.50
2019-01-27T01:04:13.460Z,252.50
2019-01-27T01:06:43.133Z,255.23
2019-01-27T01:09:12.568Z,250.83
2019-01-27T01:11:44.442Z,245.43
2019-01-27T01:14:14.157Z,252.27
2019-01-27T01:16:43.472Z,251.50
2019-01-27T01:19:12.953Z,255.57
2019-01-27T01:21:42.449Z,255.63
2019-01-27T01:24:12.022Z,241.13
2019-01-27T01:26:41.507Z,250.50
2019-01-27T01:29:10.959Z,249.63
2019-01-27T01:31:39.615Z,253.67
2019-01-27T01:34:08.390Z,247.33
2019-01-27T01:36:38.663Z,254.13
2019-01-27T01:39:08.539Z,271.90
2019-01-27T01:41:37.193Z,254.50
2019-01-27T01:44:06.213Z,253.23
2019-01-27T01:46:37.247Z,249.17
2019-01-27T01:49:06.491Z,252.93
2019-01-27T01:51:35.330Z,267.57
2019-01-27T01:54:05.572Z,270.80
2019-01-27T01:56:34.611Z,264.67
2019-01-27T01:59:03.349Z,258.33
2019-01-27T02:01:32.176Z,261.13
2019-01-27T02:04:00.772Z,253.13
2019-01-27T02:06:29.715Z,265.47
2019-01-27T02:08:58.557Z,246.83
2019-01-27T02:11:28.462Z,240.23
2019-01-27T02:13:59.619Z,256.67
2019-01-27T02:16:29.463Z,254.40
2019-01-27T02:18:58.715Z,243.50
2019-01-27T02:21:28.395Z,255.87
2019-01-27T02:23:57.192Z,237.50
2019-01-27T02:26:27.897Z,234.77
2019-01-27T02:28:56.777Z,235.70
2019-01-27T02:31:26.853Z,250.40
2019-01-27T02:33:55.629Z,232.33
2019-01-27T02:36:24.326Z,234.10
2019-01-27T02:38:53.106Z,245.87
2019-01-27T02:41:21.694Z,234.00
2019-01-27T02:43:51.672Z,229.83
2019-01-27T02:46:21.145Z,230.83
2019-01-27T02:48:50.587Z,239.50
2019-01-27T02:51:20.186Z,230.10
2019-01-27T02:53:49.585Z,234.43
2019-01-27T02:56:19.153Z,230.17
2019-01-27T02:58:48.639Z,228.43
2019-01-27T03:01:18.103Z,221.67
2019-01-27T03:03:47.693Z,217.00
2019-01-27T03:06:24.686Z,219.13
2019-01-27T03:08:55.638Z,235.43
2019-01-27T03:11:25.287Z,239.60
2019-01-27T03:13:54.847Z,247.17
2019-01-27T03:16:24.247Z,249.33
2019-01-27T03:18:53.713Z,241.90
2019-01-27T03:21:23.182Z,234.50
2019-01-27T03:23:52.675Z,230.07
2019-01-27T03:26:23.054Z,238.53
2019-01-27T03:28:52.672Z,235.87
2019-01-27T03:31:22.023Z,220.00
2019-01-27T03:33:51.499Z,212.73
2019-01-27T03:36:20.788Z,220.33
2019-01-27T03:38:50.243Z,214.60
2019-01-27T03:41:19.684Z,224.73
2019-01-27T03:43:49.220Z,243.53
2019-01-27T03:46:18.627Z,226.70
2019-01-27T03:48:51.054Z,213.83
2019-01-27T03:51:27.541Z,239.27
2019-01-27T03:53:57.052Z,212.17
2019-01-27T03:56:26.476Z,211.50
2019-01-27T03:58:55.721Z,223.57
2019-01-27T04:01:28.897Z,216.57
2019-01-27T04:03:58.409Z,216.43
2019-01-27T04:06:28.647Z,218.20
2019-01-27T04:08:58.993Z,219.90
2019-01-27T04:11:35.498Z,228.00
2019-01-27T04:14:05.619Z,241.83
2019-01-27T04:16:35.287Z,233.13
2019-01-27T04:19:07.142Z,243.53
2019-01-27T04:21:36.413Z,236.87
2019-01-27T04:24:06.214Z,234.33
2019-01-27T04:26:35.896Z,244.30
2019-01-27T04:29:05.595Z,239.10
2019-01-27T04:31:34.845Z,246.77
2019-01-27T04:34:04.628Z,232.77
2019-01-27T04:36:34.209Z,232.63
2019-01-27T04:39:05.931Z,239.87
2019-01-27T04:41:35.345Z,239.20
2019-01-27T04:44:06.868Z,247.90
2019-01-27T04:46:36.308Z,250.40
2019-01-27T04:49:05.863Z,252.97
2019-01-27T04:51:38.193Z,218.53
2019-01-27T04:54:07.771Z,235.80
2019-01-27T04:56:37.306Z,239.67
2019-01-27T04:59:07.932Z,238.67
2019-01-27T05:01:37.431Z,244.70
2019-01-27T05:04:10.653Z,234.30
2019-01-27T05:06:40.095Z,248.53
2019-01-27T05:09:10.279Z,243.43
2019-01-27T05:11:40.821Z,238.17
2019-01-27T05:14:10.211Z,249.17
2019-01-27T05:16:42.251Z,257.93
2019-01-27T05:19:11.716Z,253.63
2019-01-27T05:21:41.263Z,242.90
2019-01-27T05:24:10.692Z,239.73
2019-01-27T05:26:40.306Z,245.30
2019-01-27T05:29:09.759Z,241.33
2019-01-27T05:31:39.438Z,249.20
2019-01-27T05:34:08.728Z,239.10
2019-01-27T05:36:38.287Z,259.90
2019-01-27T05:39:07.884Z,251.20
2019-01-27T05:41:37.293Z,254.97
2019-01-27T05:44:06.730Z,240.30
2019-01-27T05:46:37.062Z,250.87
2019-01-27T05:49:07.438Z,265.13
2019-01-27T05:51:36.897Z,257.90
2019-01-27T05:54:06.840Z,250.73
2019-01-27T05:56:36.658Z,269.37
2019-01-27T05:59:07.204Z,278.27
2019-01-27T06:01:46.061Z,280.73
2019-01-27T06:04:16.433Z,291.37
2019-01-27T06:06:47.039Z,277.13
2019-01-27T06:09:18.215Z,282.37
2019-01-27T06:11:53.421Z,308.40
2019-01-27T06:14:23.921Z,289.70
2019-01-27T06:16:53.393Z,298.47
2019-01-27T06:19:22.757Z,283.37
2019-01-27T06:21:51.965Z,291.67
2019-01-27T06:24:21.436Z,307.63
2019-01-27T06:26:50.874Z,306.57
2019-01-27T06:29:20.416Z,311.70
2019-01-27T06:31:54.029Z,323.87
2019-01-27T06:34:23.480Z,338.67
2019-01-27T06:36:53.030Z,297.27
2019-01-27T06:39:22.480Z,313.50
2019-01-27T06:41:52.797Z,330.93
2019-01-27T06:44:22.023Z,356.40
2019-01-27T06:46:52.236Z,344.90
2019-01-27T06:49:22.022Z,359.43
2019-01-27T06:51:51.269Z,348.63
2019-01-27T06:54:20.749Z,358.90
2019-01-27T06:56:50.257Z,366.30
2019-01-27T06:59:23.898Z,356.00
2019-01-27T07:01:56.695Z,348.57
2019-01-27T07:04:30.323Z,359.20
2019-01-27T07:07:01.386Z,369.63
2019-01-27T07:09:38.595Z,367.27
2019-01-27T07:12:18.731Z,361.57
2019-01-27T07:14:58.120Z,383.00
2019-01-27T07:17:29.299Z,369.73
2019-01-27T07:20:09.696Z,373.33
2019-01-27T07:22:41.831Z,382.60
2019-01-27T07:25:13.238Z,402.53
2019-01-27T07:27:46.743Z,393.33
2019-01-27T07:30:20.914Z,383.13
2019-01-27T07:33:06.854Z,365.93
2019-01-27T07:35:45.878Z,385.40
2019-01-27T07:38:20.383Z,400.90
2019-01-27T07:41:01.074Z,384.70
2019-01-27T07:43:31.962Z,394.27
2019-01-27T07:46:06.206Z,411.53
2019-01-27T07:48:40.156Z,389.50
2019-01-27T07:51:11.139Z,384.77
2019-01-27T07:53:54.568Z,394.23
2019-01-27T07:56:28.422Z,385.57
2019-01-27T07:59:02.252Z,390.07
2019-01-27T08:01:42.120Z,385.13
2019-01-27T08:04:15.820Z,412.10
2019-01-27T08:06:58.933Z,406.10
2019-01-27T08:09:30.162Z,413.60
2019-01-27T08:12:19.562Z,412.73
2019-01-27T08:14:53.528Z,404.93
2019-01-27T08:17:24.463Z,392.23
2019-01-27T08:19:55.547Z,417.40
2019-01-27T08:22:38.974Z,387.93
2019-01-27T08:25:22.160Z,413.90
2019-01-27T08:27:56.150Z,411.53
2019-01-27T08:30:36.111Z,385.97
2019-01-27T08:33:07.045Z,371.80
2019-01-27T08:35:38.044Z,394.10
2019-01-27T08:38:12.918Z,379.60
2019-01-27T08:41:00.790Z,399.17
2019-01-27T08:43:47.503Z,393.33
2019-01-27T08:46:19.563Z,372.20
2019-01-27T08:48:48.996Z,392.53
2019-01-27T08:51:18.510Z,408.00
2019-01-27T08:53:48.073Z,396.30
2019-01-27T08:56:17.834Z,393.17
2019-01-27T08:58:48.316Z,397.30
2019-01-27T09:01:19.388Z,391.07
2019-01-27T09:03:50.590Z,374.67
2019-01-27T09:06:30.575Z,365.90
2019-01-27T09:09:07.146Z,373.07
2019-01-27T09:11:43.975Z,386.73
2019-01-27T09:14:14.848Z,374.57
2019-01-27T09:16:52.018Z,364.10
2019-01-27T09:19:26.029Z,377.03
2019-01-27T09:22:04.117Z,380.70
2019-01-27T09:24:44.330Z,377.23
2019-01-27T09:27:22.327Z,370.63
2019-01-27T09:29:55.890Z,373.77
2019-01-27T09:32:35.669Z,376.17
2019-01-27T09:35:13.444Z,374.90
2019-01-27T09:37:48.321Z,367.83
2019-01-27T09:40:25.134Z,377.77
2019-01-27T09:43:13.926Z,394.70
2019-01-27T09:46:05.451Z,376.50
2019-01-27T09:48:51.169Z,387.80
2019-01-27T09:51:25.013Z,382.03
2019-01-27T09:53:59.651Z,358.37
2019-01-27T09:56:36.426Z,366.30
2019-01-27T09:59:16.073Z,393.73
2019-01-27T10:01:47.317Z,382.10
2019-01-27T10:04:18.368Z,376.83
2019-01-27T10:06:50.364Z,383.80
2019-01-27T10:09:25.684Z,365.63
2019-01-27T10:11:57.881Z,388.73
2019-01-27T10:14:47.396Z,402.17
2019-01-27T10:17:36.286Z,367.77
2019-01-27T10:20:22.493Z,371.67
2019-01-27T10:23:17.404Z,386.00
2019-01-27T10:25:48.214Z,376.33
2019-01-27T10:28:29.013Z,380.63
2019-01-27T10:30:59.934Z,399.70
2019-01-27T10:33:46.028Z,383.40
2019-01-27T10:36:19.938Z,385.17
2019-01-27T10:38:50.862Z,387.63
2019-01-27T10:41:35.110Z,346.40
2019-01-27T10:44:06.418Z,391.80
2019-01-27T10:46:43.534Z,366.50
2019-01-27T10:49:23.351Z,350.00
2019-01-27T10:51:54.627Z,346.73
2019-01-27T10:54:32.681Z,348.47
2019-01-27T10:57:12.919Z,340.87
2019-01-27T11:00:00.595Z,337.10
2019-01-27T11:02:37.239Z,356.63
2019-01-27T11:05:10.570Z,329.30
2019-01-27T11:07:58.748Z,312.43
2019-01-27T11:10:30.006Z,314.57
2019-01-27T11:13:13.289Z,300.27
2019-01-27T11:16:00.572Z,300.33
2019-01-27T11:18:43.600Z,303.37
2019-01-27T11:21:14.656Z,285.40
2019-01-27T11:24:03.849Z,295.20
2019-01-27T11:26:37.638Z,269.67
2019-01-27T11:29:24.547Z,277.53
2019-01-27T11:31:55.746Z,267.60
2019-01-27T11:34:35.653Z,273.50
2019-01-27T11:37:06.637Z,265.47
2019-01-27T11:39:37.453Z,264.27
2019-01-27T11:42:11.340Z,254.13
2019-01-27T11:44:52.530Z,250.43
2019-01-27T11:47:23.744Z,241.20
2019-01-27T11:49:54.597Z,229.90
2019-01-27T11:52:24.847Z,241.10
2019-01-27T11:54:54.063Z,249.73
2019-01-27T11:57:24.363Z,232.13
2019-01-27T11:59:53.811Z,238.87
2019-01-27T12:02:23.479Z,242.57
2019-01-27T12:04:52.866Z,238.60
2019-01-27T12:07:22.311Z,237.00
2019-01-27T12:09:51.856Z,243.57
2019-01-27T12:12:21.520Z,245.30
2019-01-27T12:14:50.904Z,244.30
2019-01-27T12:17:20.493Z,235.67
2019-01-27T12:19:49.839Z,233.60
2019-01-27T12:22:19.031Z,267.43
2019-01-27T12:24:48.466Z,247.53
2019-01-27T12:27:18.081Z,250.13
2019-01-27T12:29:47.459Z,241.73
2019-01-27T12:32:20.248Z,231.73
2019-01-27T12:34:49.733Z,230.10
2019-01-27T12:37:19.242Z,238.00
2019-01-27T12:39:48.464Z,233.73
2019-01-27T12:42:23.949Z,232.70
2019-01-27T12:44:53.672Z,234.97
2019-01-27T12:47:23.019Z,235.63
2019-01-27T12:49:52.603Z,226.00
2019-01-27T12:52:22.109Z,218.97
2019-01-27T12:54:51.582Z,231.57
2019-01-27T12:57:21.023Z,252.93
2019-01-27T12:59:50.908Z,210.77
2019-01-27T13:02:20.138Z,225.87
2019-01-27T13:04:49.699Z,221.73
2019-01-27T13:07:19.146Z,217.50
2019-01-27T13:09:49.370Z,203.30
2019-01-27T13:12:18.862Z,197.43
2019-01-27T13:14:48.404Z,184.40
2019-01-27T13:17:17.913Z,178.10
2019-01-27T13:19:53.594Z,187.20
2019-01-27T13:22:18.704Z,172.13
2019-01-27T13:24:48.926Z,173.87
2019-01-27T13:27:18.421Z,167.10
2019-01-27T13:29:47.968Z,159.90
2019-01-27T13:32:17.374Z,155.97
2019-01-27T13:34:46.876Z,156.47
2019-01-27T13:37:16.763Z,160.13
2019-01-27T13:39:46.285Z,151.57
2019-01-27T13:42:20.045Z,153.80
2019-01-27T13:44:55.157Z,146.60
2019-01-27T13:47:24.627Z,150.37
2019-01-27T13:49:53.805Z,149.93
2019-01-27T13:52:25.462Z,148.60
2019-01-27T13:54:55.185Z,139.63
2019-01-27T13:57:24.346Z,143.37
2019-01-27T13:59:53.894Z,144.17
2019-01-27T14:02:25.863Z,135.80
2019-01-27T14:04:55.421Z,147.97
2019-01-27T14:07:24.816Z,141.83
2019-01-27T14:09:54.337Z,135.37
2019-01-27T14:12:23.853Z,121.53
2019-01-27T14:14:53.338Z,142.00
2019-01-27T14:17:22.784Z,127.03
2019-01-27T14:19:51.949Z,131.63
2019-01-27T14:22:21.432Z,125.27
2019-01-27T14:24:50.900Z,122.20
2019-01-27T14:27:20.150Z,141.77
2019-01-27T14:29:49.688Z,158.77
2019-01-27T14:32:19.410Z,187.70
2019-01-27T14:34:48.574Z,128.70
2019-01-27T14:37:18.071Z,133.63
2019-01-27T14:39:47.525Z,136.40
2019-01-27T14:42:16.756Z,133.50
2019-01-27T14:44:46.247Z,121.20
2019-01-27T14:47:17.149Z,121.50
2019-01-27T14:49:46.659Z,129.60
2019-01-27T14:52:16.075Z,132.40
2019-01-27T14:54:45.446Z,123.70
2019-01-27T14:57:15.169Z,124.27
2019-01-27T14:59:44.422Z,134.97
2019-01-27T15:02:14.157Z,138.20
2019-01-27T15:04:43.401Z,118.07
2019-01-27T15:07:12.650Z,118.37
2019-01-27T15:09:42.061Z,124.43
2019-01-27T15:12:11.505Z,125.97
2019-01-27T15:14:40.789Z,121.13
2019-01-27T15:17:10.913Z,120.87
2019-01-27T15:19:40.077Z,119.50
2019-01-27T15:22:09.668Z,117.43
2019-01-27T15:24:39.149Z,120.30
2019-01-27T15:27:08.597Z,124.97
2019-01-27T15:29:38.238Z,125.43
2019-01-27T15:32:07.625Z,136.87
2019-01-27T15:34:37.116Z,154.10
2019-01-27T15:37:06.839Z,204.97
2019-01-27T15:39:36.094Z,145.60
2019-01-27T15:42:05.475Z,135.80
2019-01-27T15:44:34.914Z,126.97
2019-01-27T15:47:04.309Z,120.43
2019-01-27T15:49:33.770Z,123.17
2019-01-27T15:52:03.628Z,120.53
2019-01-27T15:54:33.935Z,127.70
2019-01-27T15:57:03.427Z,119.67
2019-01-27T15:59:32.965Z,118.33
2019-01-27T16:02:03.721Z,119.23
2019-01-27T16:04:33.247Z,125.33
2019-01-27T16:07:02.718Z,116.83
2019-01-27T16:09:33.908Z,122.40
2019-01-27T16:12:09.173Z,117.43
2019-01-27T16:14:38.690Z,114.93
2019-01-27T16:17:08.323Z,124.77
2019-01-27T16:19:37.647Z,121.60
2019-01-27T16:22:07.323Z,117.07
2019-01-27T16:24:38.520Z,119.10
2019-01-27T16:27:08.063Z,117.27
2019-01-27T16:29:38.914Z,118.93
2019-01-27T16:32:10.314Z,113.20
2019-01-27T16:34:40.114Z,113.47
2019-01-27T16:37:09.824Z,120.80
2019-01-27T16:39:39.324Z,117.83
2019-01-27T16:42:08.695Z,120.67
2019-01-27T16:44:38.039Z,118.73
2019-01-27T16:47:07.495Z,121.67
2019-01-27T16:49:37.095Z,117.60
2019-01-27T16:52:06.733Z,126.63
2019-01-27T16:54:36.044Z,106.77
2019-01-27T16:57:05.782Z,116.63
2019-01-27T16:59:36.287Z,105.93
2019-01-27T17:02:06.685Z,111.13
2019-01-27T17:04:36.164Z,110.97
2019-01-27T17:07:05.700Z,104.17
2019-01-27T17:09:35.879Z,112.30
2019-01-27T17:12:05.772Z,99.80
2019-01-27T17:14:35.705Z,102.77
2019-01-27T17:17:05.529Z,110.10
2019-01-27T17:19:34.757Z,104.47
2019-01-27T17:22:04.643Z,108.73
2019-01-27T17:24:34.542Z,104.50
2019-01-27T17:27:03.892Z,105.17
2019-01-27T17:29:33.297Z,105.13
2019-01-27T17:32:02.709Z,97.30
2019-01-27T17:34:32.287Z,101.10
2019-01-27T17:37:01.810Z,95.50
2019-01-27T17:39:31.222Z,106.07
2019-01-27T17:42:00.732Z,96.90
2019-01-27T17:44:30.160Z,91.60
2019-01-27T17:47:00.547Z,96.10
2019-01-27T17:49:30.130Z,91.17
2019-01-27T17:51:59.496Z,94.60
2019-01-27T17:54:28.899Z,88.07
2019-01-27T17:56:59.820Z,95.50
2019-01-27T17:59:30.903Z,86.63
2019-01-27T18:02:17.633Z,89.37
2019-01-27T18:04:54.495Z,90.77
2019-01-27T18:07:25.723Z,88.30
2019-01-27T18:09:56.777Z,79.03
2019-01-27T18:12:27.919Z,87.57
2019-01-27T18:14:57.549Z,85.03
2019-01-27T18:17:27.206Z,89.60
2019-01-27T18:19:57.650Z,81.63
2019-01-27T18:22:26.929Z,80.87
2019-01-27T18:24:56.251Z,82.80
2019-01-27T18:27:26.611Z,80.77
2019-01-27T18:29:56.631Z,75.87
2019-01-27T18:32:26.016Z,77.57
2019-01-27T18:34:55.527Z,79.73
2019-01-27T18:37:25.128Z,76.20
2019-01-27T18:39:54.654Z,77.60
2019-01-27T18:42:26.158Z,77.03
2019-01-27T18:44:55.577Z,73.90
2019-01-27T18:47:24.832Z,79.80
2019-01-27T18:49:54.391Z,71.23
2019-01-27T18:52:31.183Z,71.43
2019-01-27T18:54:57.377Z,79.47
2019-01-27T18:57:31.287Z,69.00
2019-01-27T19:00:08.011Z,81.10
2019-01-27T19:02:44.459Z,68.90
2019-01-27T19:05:16.904Z,67.10
2019-01-27T19:07:56.666Z,71.73
2019-01-27T19:10:30.462Z,74.80
2019-01-27T19:13:04.522Z,73.40
2019-01-27T19:15:47.264Z,73.67
2019-01-27T19:18:21.941Z,73.50
2019-01-27T19:20:56.063Z,65.20
2019-01-27T19:23:27.002Z,70.23
2019-01-27T19:25:58.941Z,67.10
2019-01-27T19:28:30.266Z,73.53
2019-01-27T19:31:04.322Z,72.80
2019-01-27T19:33:41.195Z,69.80
2019-01-27T19:36:26.817Z,71.43
2019-01-27T19:39:14.264Z,68.23
2019-01-27T19:42:03.405Z,71.27
2019-01-27T19:44:37.007Z,72.40
2019-01-27T19:47:07.927Z,66.20
2019-01-27T19:49:48.000Z,69.97
2019-01-27T19:52:22.047Z,70.13
2019-01-27T19:55:07.695Z,72.53
2019-01-27T19:57:54.943Z,76.90
2019-01-27T20:00:43.152Z,73.17
2019-01-27T20:03:26.096Z,70.40
2019-01-27T20:06:10.019Z,67.43
2019-01-27T20:08:43.700Z,74.47
2019-01-27T20:11:17.290Z,69.80
2019-01-27T20:13:48.169Z,70.93
2019-01-27T20:16:31.183Z,74.30
2019-01-27T20:19:02.055Z,74.23
2019-01-27T20:21:39.020Z,69.23
2019-01-27T20:24:10.253Z,74.57
2019-01-27T20:26:41.126Z,72.57
2019-01-27T20:29:11.993Z,79.73
2019-01-27T20:31:52.103Z,73.23
2019-01-27T20:34:39.446Z,76.80
2019-01-27T20:37:10.306Z,69.07
2019-01-27T20:39:44.353Z,68.13
2019-01-27T20:42:18.175Z,74.30
2019-01-27T20:44:49.132Z,76.57
2019-01-27T20:47:20.203Z,70.03
2019-01-27T20:49:51.327Z,80.37
2019-01-27T20:52:25.170Z,75.13
2019-01-27T20:54:58.900Z,75.30
2019-01-27T20:57:47.970Z,68.77
2019-01-27T21:00:22.990Z,75.37
2019-01-27T21:03:20.625Z,71.57
2019-01-27T21:06:01.710Z,69.43
2019-01-27T21:08:32.950Z,76.17
2019-01-27T21:11:06.412Z,73.53
2019-01-27T21:13:43.290Z,80.37
2019-01-27T21:16:18.243Z,71.93
2019-01-27T21:18:49.133Z,74.93
2019-01-27T21:21:18.369Z,85.63
2019-01-27T21:23:48.801Z,81.17
2019-01-27T21:26:18.470Z,79.87
2019-01-27T21:28:47.864Z,75.00
2019-01-27T21:31:18.018Z,74.83
2019-01-27T21:33:47.817Z,81.03
2019-01-27T21:36:17.603Z,82.40
2019-01-27T21:38:48.177Z,81.97
2019-01-27T21:41:17.802Z,79.63
2019-01-27T21:43:47.205Z,80.77
2019-01-27T21:46:17.085Z,75.80
2019-01-27T21:48:50.335Z,77.87
2019-01-27T21:51:20.301Z,80.23
2019-01-27T21:53:49.713Z,85.23
2019-01-27T21:56:19.026Z,78.50
2019-01-27T21:58:48.332Z,84.97
2019-01-27T22:01:17.496Z,79.40
2019-01-27T22:03:47.030Z,83.77
2019-01-27T22:06:17.392Z,83.17
2019-01-27T22:08:46.795Z,82.53
2019-01-27T22:11:16.596Z,80.70
2019-01-27T22:13:45.822Z,79.23
2019-01-27T22:16:15.615Z,80.90
2019-01-27T22:18:44.866Z,88.63
2019-01-27T22:21:14.688Z,82.57
2019-01-27T22:23:43.995Z,78.57
2019-01-27T22:26:13.349Z,82.03
2019-01-27T22:28:42.806Z,85.20
2019-01-27T22:31:13.121Z,86.87
2019-01-27T22:33:42.527Z,83.97
2019-01-27T22:36:11.802Z,81.07
2019-01-27T22:38:41.269Z,78.03
2019-01-27T22:41:10.831Z,86.23
2019-01-27T22:43:41.146Z,75.27
2019-01-27T22:46:10.645Z,82.37
2019-01-27T22:48:40.202Z,74.03
2019-01-27T22:51:09.655Z,76.80
2019-01-27T22:53:39.171Z,83.10
2019-01-27T22:56:08.699Z,85.90
2019-01-27T22:58:37.876Z,85.00
2019-01-27T23:01:08.701Z,92.43
2019-01-27T23:03:38.075Z,89.67
2019-01-27T23:06:07.508Z,88.77
2019-01-27T23:08:37.014Z,93.47
2019-01-27T23:11:06.637Z,95.43
2019-01-27T23:13:35.964Z,86.73
2019-01-27T23:16:05.896Z,82.27
2019-01-27T23:18:35.457Z,78.30
2019-01-27T23:21:05.215Z,86.50
2019-01-27T23:23:34.383Z,77.43
2019-01-27T23:26:03.669Z,82.83
2019-01-27T23:28:33.077Z,77.33
2019-01-27T23:31:02.881Z,79.00
2019-01-27T23:33:32.596Z,79.73
2019-01-27T23:36:02.038Z,76.77
2019-01-27T23:38:31.406Z,81.00
2019-01-27T23:41:00.615Z,76.13
2019-01-27T23:43:30.196Z,78.90
2019-01-27T23:45:59.510Z,78.70
2019-01-27T23:48:28.815Z,82.07
2019-01-27T23:50:59.010Z,76.90
2019-01-27T23:53:28.840Z,81.50
2019-01-27T23:55:58.037Z,82.93
2019-01-27T23:58:27.521Z,85.10
